createdAt,value
2018-07-23T00:02:24.334Z,23.86
2018-07-23T00:04:54.841Z,23.82
2018-07-23T00:07:25.351Z,24.02
2018-07-23T00:09:55.846Z,23.93
2018-07-23T00:12:27.356Z,24.02
2018-07-23T00:14:57.967Z,24.06
2018-07-23T00:17:28.412Z,24.00
2018-07-23T00:19:58.826Z,23.85
2018-07-23T00:22:29.392Z,23.88
2018-07-23T00:24:59.781Z,23.82
2018-07-23T00:27:30.903Z,23.78
2018-07-23T00:30:01.331Z,23.75
2018-07-23T00:32:31.717Z,23.78
2018-07-23T00:35:02.178Z,23.78
2018-07-23T00:37:32.771Z,23.84
2018-07-23T00:40:03.393Z,23.86
2018-07-23T00:42:33.888Z,23.89
2018-07-23T00:45:04.809Z,23.97
2018-07-23T00:47:35.041Z,23.93
2018-07-23T00:50:05.778Z,23.81
2018-07-23T00:52:36.927Z,23.81
2018-07-23T00:55:07.532Z,23.71
2018-07-23T00:57:37.970Z,23.56
2018-07-23T01:00:08.398Z,23.64
2018-07-23T01:02:38.874Z,23.74
2018-07-23T01:05:09.339Z,23.64
2018-07-23T01:07:40.299Z,23.55
2018-07-23T01:10:10.923Z,23.51
2018-07-23T01:12:41.226Z,23.45
2018-07-23T01:15:11.505Z,23.43
2018-07-23T01:17:41.959Z,23.36
2018-07-23T01:20:12.443Z,23.22
2018-07-23T01:22:42.743Z,23.37
2018-07-23T01:25:13.443Z,23.28
2018-07-23T01:27:43.797Z,23.30
2018-07-23T01:30:14.344Z,23.28
2018-07-23T01:32:44.911Z,23.23
2018-07-23T01:35:15.281Z,23.30
2018-07-23T01:37:46.120Z,23.37
2018-07-23T01:40:16.428Z,23.40
2018-07-23T01:42:46.820Z,23.39
2018-07-23T01:45:17.304Z,23.35
2018-07-23T01:47:47.965Z,23.31
2018-07-23T01:50:18.355Z,23.25
2018-07-23T01:52:48.903Z,23.27
2018-07-23T01:55:19.274Z,23.26
2018-07-23T01:57:49.902Z,23.28
2018-07-23T02:00:21.102Z,23.39
2018-07-23T02:02:51.424Z,23.45
2018-07-23T02:05:22.144Z,23.38
2018-07-23T02:07:52.693Z,23.32
2018-07-23T02:10:23.236Z,23.19
2018-07-23T02:12:53.780Z,23.08
2018-07-23T02:15:24.482Z,22.96
2018-07-23T02:17:55.150Z,22.87
2018-07-23T02:20:25.850Z,22.80
2018-07-23T02:22:57.173Z,22.69
2018-07-23T02:25:27.689Z,22.63
2018-07-23T02:27:58.304Z,22.55
2018-07-23T02:30:28.722Z,22.54
2018-07-23T02:32:59.305Z,22.54
2018-07-23T02:35:29.677Z,22.45
2018-07-23T02:38:00.246Z,22.34
2018-07-23T02:40:30.762Z,22.20
2018-07-23T02:43:01.167Z,22.11
2018-07-23T02:45:31.467Z,22.06
2018-07-23T02:48:01.986Z,22.16
2018-07-23T02:50:32.383Z,22.18
2018-07-23T02:53:02.934Z,22.15
2018-07-23T02:55:33.431Z,22.10
2018-07-23T02:58:04.188Z,22.05
2018-07-23T03:00:34.984Z,21.95
2018-07-23T03:03:05.458Z,21.86
2018-07-23T03:05:36.006Z,21.70
2018-07-23T03:08:06.845Z,21.68
2018-07-23T03:10:37.230Z,21.59
2018-07-23T03:13:08.059Z,21.51
2018-07-23T03:15:38.514Z,21.56
2018-07-23T03:18:09.148Z,21.65
2018-07-23T03:20:39.755Z,21.68
2018-07-23T03:23:10.251Z,21.67
2018-07-23T03:25:40.645Z,21.57
2018-07-23T03:28:11.124Z,21.48
2018-07-23T03:30:41.530Z,21.48
2018-07-23T03:33:12.143Z,21.52
2018-07-23T03:35:42.722Z,21.51
2018-07-23T03:38:13.168Z,21.53
2018-07-23T03:40:43.695Z,21.51
2018-07-23T03:43:14.221Z,21.35
2018-07-23T03:45:44.809Z,21.35
2018-07-23T03:48:15.328Z,21.63
2018-07-23T03:50:45.885Z,21.94
2018-07-23T03:53:16.454Z,22.22
2018-07-23T03:55:47.133Z,22.70
2018-07-23T03:58:17.586Z,23.10
2018-07-23T04:00:48.201Z,23.47
2018-07-23T04:03:18.921Z,23.98
2018-07-23T04:05:49.319Z,24.38
2018-07-23T04:08:19.822Z,24.76
2018-07-23T04:10:50.464Z,25.33
2018-07-23T04:13:20.905Z,25.69
2018-07-23T04:15:51.313Z,26.09
2018-07-23T04:18:21.780Z,25.74
2018-07-23T04:20:52.088Z,25.84
2018-07-23T04:23:22.696Z,25.98
2018-07-23T04:25:53.272Z,26.21
2018-07-23T04:28:23.638Z,26.85
2018-07-23T04:30:54.007Z,26.93
2018-07-23T04:33:24.385Z,27.27
2018-07-23T04:35:54.896Z,27.74
2018-07-23T04:38:25.423Z,27.98
2018-07-23T04:40:56.789Z,28.31
2018-07-23T04:43:27.256Z,28.43
2018-07-23T04:45:57.912Z,27.80
2018-07-23T04:48:28.348Z,26.63
2018-07-23T04:50:58.688Z,26.51
2018-07-23T04:53:29.238Z,26.33
2018-07-23T04:56:00.351Z,26.44
2018-07-23T04:58:30.963Z,26.27
2018-07-23T05:01:01.484Z,26.27
2018-07-23T05:03:31.902Z,26.07
2018-07-23T05:06:02.289Z,25.53
2018-07-23T05:08:32.647Z,25.70
2018-07-23T05:11:03.149Z,25.46
2018-07-23T05:13:33.531Z,25.15
2018-07-23T05:16:04.162Z,25.10
2018-07-23T05:18:34.598Z,26.07
2018-07-23T05:21:05.374Z,27.63
2018-07-23T05:23:35.771Z,28.89
2018-07-23T05:26:06.300Z,30.04
2018-07-23T05:28:36.734Z,30.90
2018-07-23T05:31:07.072Z,30.33
2018-07-23T05:33:37.710Z,30.28
2018-07-23T05:36:08.251Z,31.37
2018-07-23T05:38:38.608Z,31.97
2018-07-23T05:41:09.049Z,31.87
2018-07-23T05:43:39.652Z,31.91
2018-07-23T05:46:10.146Z,31.00
2018-07-23T05:48:40.644Z,31.43
2018-07-23T05:51:11.392Z,30.88
2018-07-23T05:53:42.058Z,31.30
2018-07-23T05:56:12.424Z,31.96
2018-07-23T05:58:47.179Z,30.77
2018-07-23T06:01:20.107Z,30.62
2018-07-23T06:03:50.576Z,31.66
2018-07-23T06:06:21.195Z,31.07
2018-07-23T06:08:51.568Z,32.64
2018-07-23T06:11:21.912Z,32.16
2018-07-23T06:13:52.405Z,32.47
2018-07-23T06:16:22.900Z,32.32
2018-07-23T06:18:53.470Z,33.60
2018-07-23T06:21:23.946Z,32.90
2018-07-23T06:23:54.500Z,32.93
2018-07-23T06:26:25.000Z,33.11
2018-07-23T06:28:55.395Z,34.14
2018-07-23T06:31:25.969Z,33.59
2018-07-23T06:33:56.383Z,34.20
2018-07-23T06:36:27.024Z,35.59
2018-07-23T06:38:57.422Z,34.68
2018-07-23T06:41:27.889Z,34.84
2018-07-23T06:43:58.260Z,34.45
2018-07-23T06:46:28.886Z,33.24
2018-07-23T06:48:59.331Z,32.36
2018-07-23T06:51:29.682Z,33.19
2018-07-23T06:54:00.091Z,33.80
2018-07-23T06:56:30.736Z,34.59
2018-07-23T06:59:01.335Z,33.98
2018-07-23T07:01:32.168Z,35.24
2018-07-23T07:04:02.641Z,35.63
2018-07-23T07:06:33.020Z,34.86
2018-07-23T07:09:03.653Z,35.62
2018-07-23T07:11:36.129Z,35.45
2018-07-23T07:14:07.010Z,36.01
2018-07-23T07:16:37.512Z,36.20
2018-07-23T07:19:08.018Z,36.34
2018-07-23T07:21:38.374Z,35.35
2018-07-23T07:24:08.824Z,35.39
2018-07-23T07:26:39.614Z,36.06
2018-07-23T07:29:10.338Z,36.41
2018-07-23T07:31:40.814Z,35.72
2018-07-23T07:34:11.333Z,36.07
2018-07-23T07:36:41.822Z,36.84
2018-07-23T07:39:13.542Z,36.96
2018-07-23T07:41:44.134Z,37.58
2018-07-23T07:44:14.529Z,36.40
2018-07-23T07:46:45.121Z,37.48
2018-07-23T07:49:15.598Z,37.67
2018-07-23T07:51:45.941Z,38.83
2018-07-23T07:54:16.716Z,37.85
2018-07-23T07:56:47.046Z,37.43
2018-07-23T07:59:17.602Z,37.01
2018-07-23T08:01:48.096Z,36.82
2018-07-23T08:04:18.457Z,37.17
2018-07-23T08:06:48.906Z,37.52
2018-07-23T08:09:19.420Z,37.60
2018-07-23T08:11:50.037Z,37.56
2018-07-23T08:14:21.419Z,37.37
2018-07-23T08:16:51.786Z,37.47
2018-07-23T08:19:22.128Z,37.47
2018-07-23T08:21:52.743Z,36.40
2018-07-23T08:24:23.225Z,35.67
2018-07-23T08:26:53.639Z,35.45
2018-07-23T08:29:24.260Z,36.52
2018-07-23T08:31:54.714Z,36.47
2018-07-23T08:34:25.305Z,36.62
2018-07-23T08:36:55.827Z,35.52
2018-07-23T08:39:26.286Z,35.50
2018-07-23T08:41:56.802Z,35.75
2018-07-23T08:44:27.261Z,34.77
2018-07-23T08:46:57.778Z,34.46
2018-07-23T08:49:28.165Z,33.93
2018-07-23T08:51:58.420Z,35.21
2018-07-23T08:54:28.854Z,36.44
2018-07-23T08:56:59.525Z,37.48
2018-07-23T08:59:29.996Z,37.20
2018-07-23T09:02:00.590Z,36.26
2018-07-23T09:04:30.957Z,36.03
2018-07-23T09:07:01.421Z,36.67
2018-07-23T09:09:32.107Z,37.54
2018-07-23T09:12:02.605Z,37.26
2018-07-23T09:14:34.062Z,36.17
2018-07-23T09:17:04.373Z,34.93
2018-07-23T09:19:34.998Z,34.39
2018-07-23T09:22:05.583Z,33.55
2018-07-23T09:24:36.060Z,33.41
2018-07-23T09:27:06.626Z,32.84
2018-07-23T09:29:37.008Z,32.84
2018-07-23T09:32:07.689Z,31.82
2018-07-23T09:34:40.116Z,31.43
2018-07-23T09:37:10.736Z,30.91
2018-07-23T09:39:41.161Z,30.43
2018-07-23T09:42:11.417Z,30.40
2018-07-23T09:44:42.227Z,29.95
2018-07-23T09:47:12.812Z,29.76
2018-07-23T09:49:43.234Z,29.53
2018-07-23T09:52:13.781Z,29.44
2018-07-23T09:54:44.280Z,29.53
2018-07-23T09:57:14.642Z,29.41
2018-07-23T09:59:44.983Z,29.27
2018-07-23T10:02:15.391Z,29.30
2018-07-23T10:04:46.405Z,29.42
2018-07-23T10:07:17.223Z,29.31
2018-07-23T10:09:48.133Z,29.19
2018-07-23T10:12:18.562Z,29.20
2018-07-23T10:14:48.986Z,28.62
2018-07-23T10:17:19.543Z,27.78
2018-07-23T10:19:50.330Z,27.40
2018-07-23T10:22:20.849Z,27.52
2018-07-23T10:24:51.212Z,27.28
2018-07-23T10:27:21.795Z,27.01
2018-07-23T10:29:52.125Z,26.97
2018-07-23T10:32:22.762Z,27.09
2018-07-23T10:34:53.212Z,27.27
2018-07-23T10:37:23.870Z,27.45
2018-07-23T10:39:54.350Z,27.63
2018-07-23T10:42:25.298Z,27.78
2018-07-23T10:44:55.980Z,27.86
2018-07-23T10:47:26.365Z,28.05
2018-07-23T10:49:56.935Z,28.15
2018-07-23T10:52:27.305Z,28.28
2018-07-23T10:54:57.627Z,28.17
2018-07-23T10:57:28.312Z,28.18
2018-07-23T10:59:58.780Z,28.16
2018-07-23T11:02:29.356Z,28.29
2018-07-23T11:04:59.738Z,28.20
2018-07-23T11:07:30.139Z,28.18
2018-07-23T11:10:00.474Z,27.80
2018-07-23T11:12:31.032Z,27.39
2018-07-23T11:15:01.412Z,26.90
2018-07-23T11:17:32.187Z,26.93
2018-07-23T11:20:02.791Z,26.82
2018-07-23T11:22:33.421Z,26.70
2018-07-23T11:25:38.323Z,26.36
2018-07-23T11:27:35.189Z,26.21
2018-07-23T11:30:06.273Z,25.97
2018-07-23T11:32:37.149Z,25.77
2018-07-23T11:35:07.806Z,25.60
2018-07-23T11:37:38.299Z,25.09
2018-07-23T11:40:09.027Z,24.74
2018-07-23T11:42:39.407Z,24.34
2018-07-23T11:45:09.936Z,24.31
2018-07-23T11:47:40.901Z,24.44
2018-07-23T11:50:11.628Z,24.63
2018-07-23T11:52:42.088Z,24.55
2018-07-23T11:55:12.573Z,24.43
2018-07-23T11:57:42.991Z,24.63
2018-07-23T12:00:13.438Z,24.76
2018-07-23T12:02:43.965Z,24.82
2018-07-23T12:05:14.496Z,25.04
2018-07-23T12:07:45.019Z,25.09
2018-07-23T12:10:15.558Z,25.34
2018-07-23T12:12:46.034Z,25.43
2018-07-23T12:15:16.493Z,25.79
2018-07-23T12:17:46.911Z,26.09
2018-07-23T12:20:17.402Z,26.62
2018-07-23T12:22:48.063Z,26.97
2018-07-23T12:25:18.598Z,27.13
2018-07-23T12:27:49.087Z,27.61
2018-07-23T12:30:19.739Z,27.76
2018-07-23T12:32:50.085Z,28.21
2018-07-23T12:35:20.391Z,28.34
2018-07-23T12:37:50.700Z,28.79
2018-07-23T12:40:21.674Z,29.07
2018-07-23T12:42:52.258Z,29.22
2018-07-23T12:45:23.060Z,29.30
2018-07-23T12:47:53.919Z,28.98
2018-07-23T12:50:24.323Z,29.41
2018-07-23T12:52:54.913Z,29.82
2018-07-23T12:55:25.494Z,29.37
2018-07-23T12:57:55.950Z,28.83
2018-07-23T13:00:26.350Z,28.94
2018-07-23T13:02:56.700Z,29.09
2018-07-23T13:05:31.546Z,29.50
2018-07-23T13:08:03.807Z,29.69
2018-07-23T13:10:34.502Z,30.05
2018-07-23T13:13:05.014Z,30.30
2018-07-23T13:15:35.480Z,30.67
2018-07-23T13:18:05.942Z,30.78
2018-07-23T13:20:36.390Z,30.63
2018-07-23T13:23:06.873Z,30.64
2018-07-23T13:25:37.273Z,30.70
2018-07-23T13:28:07.985Z,30.93
2018-07-23T13:30:38.448Z,30.85
2018-07-23T13:33:08.850Z,30.69
2018-07-23T13:35:39.400Z,30.75
2018-07-23T13:38:09.946Z,30.75
2018-07-23T13:40:40.384Z,30.53
2018-07-23T13:43:10.742Z,30.78
2018-07-23T13:45:41.082Z,30.60
2018-07-23T13:48:12.100Z,30.30
2018-07-23T13:50:42.674Z,30.15
2018-07-23T13:53:13.505Z,30.20
2018-07-23T13:55:43.887Z,30.20
2018-07-23T13:58:14.463Z,30.25
2018-07-23T14:00:45.290Z,30.05
2018-07-23T14:03:15.782Z,29.71
2018-07-23T14:05:46.280Z,28.90
2018-07-23T14:08:17.166Z,28.11
2018-07-23T14:10:47.599Z,27.68
2018-07-23T14:13:18.460Z,27.52
2018-07-23T14:15:49.511Z,27.29
2018-07-23T14:18:20.042Z,27.00
2018-07-23T14:20:50.385Z,27.06
2018-07-23T14:23:20.930Z,26.96
2018-07-23T14:25:52.012Z,26.94
2018-07-23T14:28:22.656Z,26.78
2018-07-23T14:30:53.330Z,26.48
2018-07-23T14:33:23.801Z,26.15
2018-07-23T14:35:54.192Z,26.17
2018-07-23T14:38:24.962Z,26.00
2018-07-23T14:40:55.326Z,25.82
2018-07-23T14:43:25.754Z,25.87
2018-07-23T14:45:56.299Z,25.70
2018-07-23T14:48:27.459Z,25.54
2018-07-23T14:50:58.104Z,25.35
2018-07-23T14:53:28.481Z,25.29
2018-07-23T14:55:59.597Z,25.34
2018-07-23T14:58:30.027Z,25.24
2018-07-23T15:01:00.296Z,25.10
2018-07-23T15:03:30.756Z,25.10
2018-07-23T15:06:01.181Z,24.87
2018-07-23T15:08:31.849Z,25.08
2018-07-23T15:11:02.305Z,24.77
2018-07-23T15:13:32.661Z,24.43
2018-07-23T15:16:03.194Z,24.23
2018-07-23T15:18:33.642Z,24.18
2018-07-23T15:21:04.590Z,24.11
2018-07-23T15:23:35.284Z,24.38
2018-07-23T15:26:06.061Z,24.58
2018-07-23T15:28:36.573Z,24.40
2018-07-23T15:31:07.051Z,24.45
2018-07-23T15:33:37.455Z,24.40
2018-07-23T15:36:08.015Z,24.39
2018-07-23T15:38:38.475Z,24.39
2018-07-23T15:41:09.940Z,24.58
2018-07-23T15:43:40.401Z,24.79
2018-07-23T15:46:11.700Z,25.00
2018-07-23T15:48:42.521Z,25.24
2018-07-23T15:51:13.174Z,25.42
2018-07-23T15:53:43.547Z,25.55
2018-07-23T15:56:14.128Z,25.73
2018-07-23T15:58:44.494Z,25.99
2018-07-23T16:01:14.861Z,26.17
2018-07-23T16:03:45.159Z,26.18
2018-07-23T16:06:17.787Z,26.49
2018-07-23T16:08:49.395Z,26.35
2018-07-23T16:11:19.981Z,26.08
2018-07-23T16:13:50.555Z,26.03
2018-07-23T16:16:20.913Z,25.79
2018-07-23T16:18:51.584Z,25.55
2018-07-23T16:21:22.562Z,25.73
2018-07-23T16:23:53.134Z,25.44
2018-07-23T16:26:23.574Z,25.65
2018-07-23T16:28:54.345Z,25.63
2018-07-23T16:31:24.762Z,25.42
2018-07-23T16:33:55.246Z,25.35
2018-07-23T16:36:25.821Z,24.99
2018-07-23T16:38:58.203Z,24.95
2018-07-23T16:41:30.845Z,24.85
2018-07-23T16:44:01.635Z,24.83
2018-07-23T16:46:32.176Z,24.62
2018-07-23T16:49:02.448Z,24.52
2018-07-23T16:51:32.797Z,24.55
2018-07-23T16:54:03.549Z,24.46
2018-07-23T16:56:33.856Z,24.37
2018-07-23T16:59:04.468Z,24.36
2018-07-23T17:01:34.952Z,24.31
2018-07-23T17:04:05.406Z,24.28
2018-07-23T17:06:35.793Z,24.19
2018-07-23T17:09:09.461Z,24.09
2018-07-23T17:11:39.851Z,24.01
2018-07-23T17:14:10.304Z,24.03
2018-07-23T17:16:40.691Z,23.94
2018-07-23T17:19:11.112Z,23.87
2018-07-23T17:21:41.458Z,23.87
2018-07-23T17:24:11.820Z,23.72
2018-07-23T17:26:42.489Z,23.63
2018-07-23T17:29:13.073Z,23.63
2018-07-23T17:31:44.440Z,23.50
2018-07-23T17:34:15.072Z,23.55
2018-07-23T17:36:46.513Z,23.54
2018-07-23T17:39:17.136Z,23.41
2018-07-23T17:41:47.401Z,23.48
2018-07-23T17:44:18.728Z,23.37
2018-07-23T17:46:49.069Z,23.29
2018-07-23T17:49:19.433Z,23.13
2018-07-23T17:51:49.857Z,23.11
2018-07-23T17:54:20.268Z,22.99
2018-07-23T17:56:50.835Z,22.99
2018-07-23T17:59:21.270Z,22.92
2018-07-23T18:01:51.769Z,22.85
2018-07-23T18:04:22.290Z,22.82
2018-07-23T18:06:52.582Z,22.86
2018-07-23T18:09:23.204Z,22.82
2018-07-23T18:11:53.757Z,22.75
2018-07-23T18:14:24.079Z,22.65
2018-07-23T18:16:54.732Z,22.65
2018-07-23T18:19:25.687Z,22.57
2018-07-23T18:21:56.502Z,22.47
2018-07-23T18:24:26.854Z,22.39
2018-07-23T18:26:57.563Z,22.44
2018-07-23T18:29:28.116Z,22.40
2018-07-23T18:31:58.742Z,22.32
2018-07-23T18:34:29.201Z,22.40
2018-07-23T18:36:59.712Z,22.49
2018-07-23T18:39:29.973Z,22.41
2018-07-23T18:42:00.558Z,22.33
2018-07-23T18:44:30.924Z,22.26
2018-07-23T18:47:01.360Z,22.19
2018-07-23T18:49:44.475Z,22.19
2018-07-23T18:52:15.423Z,22.08
2018-07-23T18:54:47.880Z,22.10
2018-07-23T18:57:18.368Z,22.07
2018-07-23T18:59:48.873Z,21.91
2018-07-23T19:02:20.516Z,21.81
2018-07-23T19:04:51.053Z,21.85
2018-07-23T19:07:21.729Z,21.79
2018-07-23T19:09:52.164Z,21.67
2018-07-23T19:12:22.672Z,21.63
2018-07-23T19:14:53.054Z,21.68
2018-07-23T19:17:23.596Z,21.64
2018-07-23T19:19:54.049Z,21.79
2018-07-23T19:22:24.599Z,21.71
2018-07-23T19:24:54.912Z,21.66
2018-07-23T19:27:25.238Z,21.62
2018-07-23T19:29:55.681Z,21.65
2018-07-23T19:32:26.046Z,21.61
2018-07-23T19:34:56.451Z,21.59
2018-07-23T19:37:26.861Z,21.63
2018-07-23T19:39:57.240Z,21.62
2018-07-23T19:42:27.957Z,21.68
2018-07-23T19:44:58.248Z,21.66
2018-07-23T19:47:28.798Z,21.69
2018-07-23T19:49:59.128Z,21.68
2018-07-23T19:52:29.480Z,21.64
2018-07-23T19:55:00.075Z,21.60
2018-07-23T19:57:30.585Z,21.49
2018-07-23T20:00:00.927Z,21.49
2018-07-23T20:02:31.524Z,21.59
2018-07-23T20:05:01.919Z,21.58
2018-07-23T20:07:32.251Z,21.59
2018-07-23T20:10:03.338Z,21.58
2018-07-23T20:12:33.723Z,21.75
2018-07-23T20:15:04.349Z,21.65
2018-07-23T20:17:34.938Z,21.51
2018-07-23T20:20:05.889Z,21.62
2018-07-23T20:22:36.282Z,21.61
2018-07-23T20:25:06.869Z,21.69
2018-07-23T20:27:37.353Z,21.80
2018-07-23T20:30:07.790Z,21.77
2018-07-23T20:32:38.330Z,21.81
2018-07-23T20:35:09.168Z,21.80
2018-07-23T20:37:39.645Z,21.78
2018-07-23T20:40:10.088Z,21.80
2018-07-23T20:42:40.499Z,21.82
2018-07-23T20:45:11.577Z,21.91
2018-07-23T20:47:42.713Z,21.99
2018-07-23T20:50:13.105Z,22.08
2018-07-23T20:52:43.386Z,22.05
2018-07-23T20:55:13.850Z,22.16
2018-07-23T20:57:44.181Z,22.11
2018-07-23T21:00:14.674Z,21.99
2018-07-23T21:02:45.077Z,21.90
2018-07-23T21:05:16.213Z,21.87
2018-07-23T21:07:46.491Z,21.84
2018-07-23T21:10:16.880Z,21.84
2018-07-23T21:12:47.179Z,21.86
2018-07-23T21:15:18.032Z,21.77
2018-07-23T21:17:48.247Z,21.79
2018-07-23T21:20:19.672Z,21.76
2018-07-23T21:22:50.093Z,21.73
2018-07-23T21:25:21.444Z,21.72
2018-07-23T21:27:52.317Z,21.59
2018-07-23T21:30:22.912Z,21.66
2018-07-23T21:32:54.151Z,21.62
2018-07-23T21:35:25.264Z,21.62
2018-07-23T21:37:55.821Z,21.70
2018-07-23T21:40:26.311Z,21.77
2018-07-23T21:42:56.734Z,21.77
2018-07-23T21:45:27.094Z,21.77
2018-07-23T21:47:57.492Z,21.80
2018-07-23T21:50:27.966Z,21.88
2018-07-23T21:52:58.277Z,21.89
2018-07-23T21:55:28.760Z,21.21
2018-07-23T21:57:59.319Z,21.84
2018-07-23T22:00:31.017Z,21.89
2018-07-23T22:03:01.623Z,21.89
2018-07-23T22:05:32.597Z,21.96
2018-07-23T22:08:02.970Z,22.00
2018-07-23T22:10:33.844Z,22.03
2018-07-23T22:13:04.661Z,22.01
2018-07-23T22:15:35.165Z,21.98
2018-07-23T22:18:06.598Z,21.94
2018-07-23T22:20:37.370Z,21.91
2018-07-23T22:23:08.100Z,21.91
2018-07-23T22:25:38.830Z,21.94
2018-07-23T22:28:09.309Z,21.86
2018-07-23T22:30:39.825Z,21.83
2018-07-23T22:33:10.231Z,21.78
2018-07-23T22:35:41.043Z,21.76
2018-07-23T22:38:11.270Z,21.74
2018-07-23T22:40:41.728Z,21.73
2018-07-23T22:43:11.994Z,21.72
2018-07-23T22:45:42.682Z,21.74
2018-07-23T22:48:13.393Z,21.80
2018-07-23T22:50:43.905Z,21.63
2018-07-23T22:53:14.237Z,21.57
2018-07-23T22:55:44.438Z,21.58
2018-07-23T22:58:15.080Z,21.53
2018-07-23T23:00:45.661Z,21.59
2018-07-23T23:03:15.995Z,21.58
2018-07-23T23:05:46.513Z,21.57
2018-07-23T23:08:17.151Z,21.60
2018-07-23T23:10:47.723Z,21.54
2018-07-23T23:13:18.186Z,21.64
2018-07-23T23:15:48.711Z,21.64
2018-07-23T23:18:19.010Z,21.70
2018-07-23T23:20:49.511Z,21.73
2018-07-23T23:23:19.932Z,21.73
2018-07-23T23:25:50.282Z,21.72
2018-07-23T23:28:21.009Z,21.74
2018-07-23T23:30:51.432Z,21.78
2018-07-23T23:33:21.992Z,21.77
2018-07-23T23:35:52.347Z,21.81
2018-07-23T23:38:23.243Z,21.75
2018-07-23T23:40:53.560Z,21.72
2018-07-23T23:43:24.109Z,21.72
2018-07-23T23:45:54.396Z,20.96
2018-07-23T23:48:24.850Z,21.80
2018-07-23T23:50:55.346Z,21.77
2018-07-23T23:53:25.629Z,21.83
2018-07-23T23:55:56.331Z,21.80
2018-07-23T23:58:26.637Z,21.76
